Time;durP1;ratioP1;P1;durP2;ratioP2;P2;SDS_P1;SDS_P2;PMS_P1;PMS_P2;Temp;Humidity;BMP_temperature;BMP_pressure;BME280_temperature;BME280_humidity;BME280_pressure;Samples;Min_cycle;Max_cycle;Signal;HPM_P1;HPM_P2
2021/01/26 00:01:06;;;;;;;23.77;8.83;;;;;;;1.69;75.11;97960.44;1633468;86;21182;-70
2021/01/26 00:03:34;;;;;;;23.45;10.68;;;;;;;1.67;75.19;97962.16;1640238;86;21214;-73
2021/01/26 00:06:02;;;;;;;25.45;10.55;;;;;;;1.67;75.11;97965.59;1640925;86;21190;-72
2021/01/26 00:08:29;;;;;;;25.17;11.55;;;;;;;1.65;75.27;97963.48;1631793;87;21174;-72
2021/01/26 00:10:58;;;;;;;20.30;11.05;;;;;;;1.68;75.29;97966.44;1632370;86;21686;-71
2021/01/26 00:13:27;;;;;;;23.18;10.23;;;;;;;1.69;74.54;97966.43;1632464;86;21641;-72
2021/01/26 00:15:55;;;;;;;20.08;9.23;;;;;;;1.73;74.21;97963.39;1630899;87;21159;-71
2021/01/26 00:18:23;;;;;;;20.25;9.25;;;;;;;1.72;74.87;97968.11;1631498;86;21612;-71
2021/01/26 00:20:51;;;;;;;24.20;10.28;;;;;;;1.72;74.46;97963.83;1630804;86;21194;-72
2021/01/26 00:23:19;;;;;;;26.97;10.43;;;;;;;1.74;74.07;97960.82;1631602;86;21199;-72
2021/01/26 00:25:47;;;;;;;20.12;9.38;;;;;;;1.72;74.78;97961.70;1631844;87;21611;-71
2021/01/26 00:28:17;;;;;;;22.93;9.15;;;;;;;1.69;74.66;97958.74;1631131;86;22039;-70
2021/01/26 00:30:45;;;;;;;23.83;9.25;;;;;;;1.70;74.55;97957.02;1624339;86;21222;-70
2021/01/26 00:33:21;;;;;;;26.20;9.68;;;;;;;1.71;74.69;97958.30;1633768;86;21163;-70
2021/01/26 00:35:49;;;;;;;23.57;10.00;;;;;;;1.67;74.83;97948.94;1632974;87;21162;-71
2021/01/26 00:38:18;;;;;;;17.80;9.03;;;;;;;1.72;74.64;97948.89;1632149;86;21173;-71
2021/01/26 00:40:46;;;;;;;19.48;9.93;;;;;;;1.74;74.75;97944.16;1633328;86;21170;-72
2021/01/26 00:43:15;;;;;;;19.95;10.13;;;;;;;1.81;74.88;97944.11;1634207;86;21178;-71
2021/01/26 00:45:43;;;;;;;19.00;9.68;;;;;;;1.78;74.56;97945.84;1633124;86;21186;-72
2021/01/26 00:48:11;;;;;;;25.02;10.85;;;;;;;1.79;74.31;97945.40;1633310;87;21178;-71
2021/01/26 00:50:39;;;;;;;22.58;10.32;;;;;;;1.82;74.27;97948.39;1634052;86;21210;-72
2021/01/26 00:53:08;;;;;;;20.85;9.55;;;;;;;1.81;74.17;97945.39;1617662;87;21223;-71
2021/01/26 00:55:40;;;;;;;22.48;9.68;;;;;;;1.78;74.17;97952.24;1633389;86;21600;-71
2021/01/26 00:58:09;;;;;;;23.47;10.98;;;;;;;1.76;74.16;97949.28;1607894;87;21647;-71
2021/01/26 01:00:39;;;;;;;23.20;9.73;;;;;;;1.69;74.19;97945.94;1634909;87;21619;-72
2021/01/26 01:03:08;;;;;;;22.58;11.03;;;;;;;1.62;74.96;97951.11;1633371;87;21191;-71
2021/01/26 01:05:36;;;;;;;24.90;10.80;;;;;;;1.61;74.20;97954.08;1633481;86;21178;-71
2021/01/26 01:08:04;;;;;;;25.72;10.88;;;;;;;1.57;74.16;97961.38;1633987;87;21167;-71
2021/01/26 01:10:36;;;;;;;20.82;9.55;;;;;;;1.52;74.66;97952.89;1633901;86;21198;-72
2021/01/26 01:13:12;;;;;;;28.77;11.22;;;;;;;1.47;75.46;97947.78;1632604;86;21207;-72
2021/01/26 01:15:40;;;;;;;20.27;10.38;;;;;;;1.42;74.89;97930.33;1632320;86;21190;-71
2021/01/26 01:18:10;;;;;;;24.37;10.78;;;;;;;1.41;74.93;97920.93;1631860;86;21737;-71
2021/01/26 01:20:38;;;;;;;22.93;10.90;;;;;;;1.41;75.28;97899.60;1633794;86;21198;-71
2021/01/26 01:23:06;;;;;;;26.40;11.22;;;;;;;1.40;75.43;97893.64;1633204;86;21198;-71
2021/01/26 01:25:34;;;;;;;26.50;11.12;;;;;;;1.43;75.32;97911.97;1632727;87;21619;-71
2021/01/26 01:28:03;;;;;;;28.57;11.53;;;;;;;1.41;75.48;97912.41;1633627;86;21182;-70
2021/01/26 01:30:33;;;;;;;23.98;11.30;;;;;;;1.38;75.39;97917.97;1633070;87;21202;-71
2021/01/26 01:33:04;;;;;;;25.27;10.20;;;;;;;1.38;74.98;97923.53;1646210;85;21200;-71
2021/01/26 01:35:32;;;;;;;25.60;12.73;;;;;;;1.32;75.75;97930.82;1686741;83;21178;-73
2021/01/26 01:38:00;;;;;;;29.75;13.28;;;;;;;1.26;76.29;97915.50;1686850;84;21149;-72
2021/01/26 01:40:35;;;;;;;25.27;11.48;;;;;;;1.21;76.65;97904.43;1687452;83;21198;-71
2021/01/26 01:43:04;;;;;;;24.35;10.38;;;;;;;1.18;76.18;97903.19;1686379;84;21177;-72
2021/01/26 01:45:32;;;;;;;25.52;11.25;;;;;;;1.15;76.85;97904.47;1685882;83;21175;-72
2021/01/26 01:48:26;;;;;;;24.27;11.05;;;;;;;1.17;76.30;97910.02;1686351;84;21160;-71
2021/01/26 01:51:13;;;;;;;30.23;11.35;;;;;;;1.13;77.93;97926.67;1686517;84;21161;-71
2021/01/26 01:53:58;;;;;;;22.73;10.68;;;;;;;1.17;76.94;97954.83;1680587;84;21181;-71
2021/01/26 01:56:40;;;;;;;27.13;11.68;;;;;;;1.18;77.13;97970.59;1686019;84;21161;-72
2021/01/26 01:59:16;;;;;;;28.12;12.35;;;;;;;1.19;77.38;97972.72;1686912;84;21157;-72
2021/01/26 02:01:44;;;;;;;24.37;11.60;;;;;;;1.17;77.65;97979.55;1686393;83;21606;-72
2021/01/26 02:04:15;;;;;;;23.90;12.58;;;;;;;1.11;78.44;97978.31;1688775;83;21590;-71
2021/01/26 02:06:45;;;;;;;28.27;11.73;;;;;;;1.14;76.49;97965.07;1686679;83;21161;-71
2021/01/26 02:09:36;;;;;;;26.60;12.73;;;;;;;1.10;76.81;97944.63;1687632;84;21170;-72
2021/01/26 02:12:06;;;;;;;25.95;9.68;;;;;;;1.09;76.59;97949.31;1687241;84;21130;-71
2021/01/26 02:14:38;;;;;;;25.68;11.93;;;;;;;1.08;76.20;97940.79;1687308;84;21181;-71
2021/01/26 02:17:53;;;;;;;25.10;11.12;;;;;;;1.02;78.38;97960.46;1685727;84;21149;-70
2021/01/26 02:20:53;;;;;;;26.87;11.88;;;;;;;1.03;76.75;97959.59;1621439;87;21633;-71
2021/01/26 02:23:26;;;;;;;23.55;10.18;;;;;;;1.01;77.63;97957.02;1647990;85;21651;-72
2021/01/26 02:26:32;;;;;;;21.00;10.45;;;;;;;1.01;78.87;97958.30;1647920;85;21185;-71
2021/01/26 02:29:14;;;;;;;23.85;10.50;;;;;;;1.02;78.71;97950.22;1629503;85;21146;-71
2021/01/26 02:32:11;;;;;;;26.52;11.35;;;;;;;1.03;78.69;97933.55;1692469;82;21201;-71
2021/01/26 02:34:59;;;;;;;25.05;11.63;;;;;;;1.06;78.95;97945.06;1710182;82;21612;-71
2021/01/26 02:37:52;;;;;;;30.50;12.88;;;;;;;1.07;79.15;97948.03;1709733;82;21606;-71
2021/01/26 02:40:49;;;;;;;35.70;14.53;;;;;;;1.12;78.42;97950.16;1711087;81;21157;-71
2021/01/26 02:43:51;;;;;;;27.32;12.65;;;;;;;1.15;78.27;97938.62;1710759;83;21164;-70
2021/01/26 02:46:24;;;;;;;24.25;10.25;;;;;;;1.17;78.87;97959.08;1711215;81;21173;-72
2021/01/26 02:49:03;;;;;;;23.25;11.93;;;;;;;1.14;78.80;97947.59;1710933;81;21184;-72
2021/01/26 02:51:56;;;;;;;26.57;10.78;;;;;;;1.17;77.46;97970.59;1682489;83;21882;-71
2021/01/26 02:54:32;;;;;;;26.48;11.60;;;;;;;1.08;79.14;97972.78;1711803;82;21929;-71
2021/01/26 02:57:08;;;;;;;19.85;9.33;;;;;;;1.11;79.08;97974.47;1709330;81;21173;-71
2021/01/26 03:00:01;;;;;;;22.87;11.43;;;;;;;1.12;78.81;97969.78;1711801;82;21608;-71
2021/01/26 03:02:51;;;;;;;27.07;9.85;;;;;;;1.16;77.27;97979.99;1708133;81;21621;-71
2021/01/26 03:05:42;;;;;;;48.15;19.85;;;;;;;1.14;77.64;97984.70;1711271;82;21626;-71
2021/01/26 03:08:18;;;;;;;37.65;15.20;;;;;;;1.15;77.62;97969.34;1693310;83;21153;-72
2021/01/26 03:10:54;;;;;;;36.33;15.78;;;;;;;1.15;77.73;97980.87;1711911;81;21149;-71
2021/01/26 03:13:25;;;;;;;29.57;12.78;;;;;;;1.17;78.02;97983.39;1693225;83;21165;-71
2021/01/26 03:16:04;;;;;;;22.50;10.58;;;;;;;1.18;78.85;98000.03;1710875;82;21164;-71
2021/01/26 03:18:42;;;;;;;22.37;9.88;;;;;;;1.20;78.60;98012.84;1710230;82;21177;-71
2021/01/26 03:21:13;;;;;;;22.75;11.18;;;;;;;1.24;78.21;98011.96;1680601;83;21186;-71
2021/01/26 03:23:48;;;;;;;23.20;10.65;;;;;;;1.25;78.54;98014.92;1709826;83;21695;-71
2021/01/26 03:26:21;;;;;;;21.50;11.97;;;;;;;1.29;78.45;98010.64;1709127;82;21539;-71
2021/01/26 03:28:58;;;;;;;40.30;15.35;;;;;;;1.30;77.99;98011.92;1710481;83;21609;-71
2021/01/26 03:31:34;;;;;;;31.52;13.43;;;;;;;1.25;79.13;98008.96;1708680;83;21170;-72
2021/01/26 03:34:04;;;;;;;28.45;12.28;;;;;;;1.28;78.68;98033.28;1673642;84;21182;-71
2021/01/26 03:36:32;;;;;;;25.40;12.58;;;;;;;1.29;78.57;98043.50;1681206;84;21174;-71
2021/01/26 03:39:01;;;;;;;21.62;10.48;;;;;;;1.28;78.45;98048.21;1680254;84;21143;-70
2021/01/26 03:41:30;;;;;;;25.27;11.88;;;;;;;1.22;79.23;98057.64;1681273;84;21181;-71
2021/01/26 03:43:58;;;;;;;23.67;10.72;;;;;;;1.24;78.38;98053.36;1681907;84;21974;-71
2021/01/26 03:49:33;;;;;;;29.50;11.80;;;;;;;1.32;79.18;98056.73;1827145;76;23548;-71
2021/01/26 03:52:31;;;;;;;28.52;12.33;;;;;;;1.30;78.86;98055.89;1799526;77;21177;-71
2021/01/26 03:55:06;;;;;;;26.85;12.98;;;;;;;1.29;79.83;98040.09;1797197;79;21141;-71
2021/01/26 03:58:21;;;;;;;30.72;11.50;;;;;;;1.35;79.07;98034.94;1799713;77;21148;-71
2021/01/26 04:01:20;;;;;;;25.77;12.60;;;;;;;1.36;79.19;98046.90;1800454;79;21592;-72
2021/01/26 04:04:19;;;;;;;26.75;12.23;;;;;;;1.35;79.73;98055.02;1799023;79;21117;-72
2021/01/26 04:06:53;;;;;;;31.65;12.70;;;;;;;1.36;79.08;98052.86;1798464;79;21616;-71
2021/01/26 04:09:24;;;;;;;35.43;13.55;;;;;;;1.37;80.51;98038.34;1797345;78;21116;-73
2021/01/26 04:12:00;;;;;;;34.75;15.38;;;;;;;1.37;80.88;98039.22;1800499;79;21108;-71
2021/01/26 04:14:56;;;;;;;28.85;13.20;;;;;;;1.38;80.05;98060.11;1798646;78;21529;-71
2021/01/26 04:17:32;;;;;;;33.70;12.70;;;;;;;1.37;80.65;98066.11;1799313;78;21152;-71
2021/01/26 04:20:13;;;;;;;26.48;11.70;;;;;;;1.37;79.11;98065.23;1799378;78;21128;-70
2021/01/26 04:22:42;;;;;;;25.15;12.30;;;;;;;1.28;81.61;98074.25;1800978;79;21123;-71
2021/01/26 04:25:36;;;;;;;33.20;15.20;;;;;;;1.26;80.35;98089.62;1800671;78;21984;-71
2021/01/26 04:28:12;;;;;;;;;;;;;;;1.24;79.93;98104.14;1801753;77;21146;-71
2021/01/26 04:30:41;;;;;;;41.90;16.87;;;;;;;1.22;79.80;98115.25;1798505;78;20746;-70
2021/01/26 04:33:13;;;;;;;44.80;18.30;;;;;;;1.18;79.65;98109.28;1770453;78;21180;-71
2021/01/26 04:35:42;;;;;;;44.08;17.12;;;;;;;1.15;79.73;98112.71;1769370;79;21549;-71
2021/01/26 04:38:10;;;;;;;38.13;14.70;;;;;;;1.12;81.31;98123.38;1800705;78;22034;-71
2021/01/26 04:40:38;;;;;;;35.00;14.93;;;;;;;1.10;81.54;98123.81;1799619;78;21147;-71
2021/01/26 04:43:30;;;;;;;30.25;12.78;;;;;;;1.11;81.25;98121.66;1798987;79;21128;-71
2021/01/26 04:46:03;;;;;;;35.80;15.58;;;;;;;1.13;80.66;98110.98;1801405;79;21128;-70
2021/01/26 04:49:20;;;;;;;39.48;16.00;;;;;;;1.10;81.57;98104.18;1799155;78;21151;-70
2021/01/26 04:52:10;;;;;;;43.73;19.50;;;;;;;1.08;82.60;98080.30;1800107;79;21143;-71
2021/01/26 04:55:01;;;;;;;29.70;14.58;;;;;;;1.10;82.20;98090.53;1798744;78;21635;-71
2021/01/26 04:57:56;;;;;;;23.50;11.63;;;;;;;1.09;82.54;98106.30;1800193;78;21132;-70
2021/01/26 05:01:01;;;;;;;30.25;12.70;;;;;;;1.03;83.02;98106.32;1772724;77;21993;-72
2021/01/26 05:04:07;;;;;;;;;;;;;;;1.00;80.99;98116.59;1801763;78;21140;-71
2021/01/26 05:06:49;;;;;;;;;;;;;;;0.92;82.95;98130.67;1801130;78;20163;-72
2021/01/26 05:09:24;;;;;;;31.52;12.98;;;;;;;0.90;81.95;98145.18;1798783;77;20561;-71
2021/01/26 05:11:56;;;;;;;24.65;13.00;;;;;;;0.91;80.56;98150.70;1798029;78;21172;-71
2021/01/26 05:14:31;;;;;;;36.05;14.40;;;;;;;0.88;82.67;98153.29;1798941;79;21160;-71
2021/01/26 05:17:08;;;;;;;35.35;15.18;;;;;;;0.91;81.65;98150.70;1798330;78;21624;-71
2021/01/26 05:19:47;;;;;;;31.20;14.68;;;;;;;0.94;81.72;98151.16;1771116;79;21147;-71
2021/01/26 05:22:35;;;;;;;37.63;16.07;;;;;;;0.95;81.50;98136.20;1800521;78;21156;-71
2021/01/26 05:25:10;;;;;;;37.50;17.60;;;;;;;0.97;82.46;98131.50;1799443;77;21652;-72
2021/01/26 05:27:38;;;;;;;39.05;18.60;;;;;;;1.00;82.95;98144.74;1797827;78;21167;-72
2021/01/26 05:30:11;;;;;;;39.65;20.37;;;;;;;1.01;82.37;98153.27;1799989;78;21186;-71
2021/01/26 05:32:43;;;;;;;40.28;17.77;;;;;;;0.99;82.97;98146.45;1800899;78;21168;-71
2021/01/26 05:35:14;;;;;;;35.45;15.70;;;;;;;0.97;83.40;98151.13;1763722;80;21135;-70
2021/01/26 05:37:42;;;;;;;27.13;12.82;;;;;;;0.95;82.91;98160.52;1756590;81;21117;-71
2021/01/26 05:40:21;;;;;;;36.55;14.23;;;;;;;0.94;81.89;98157.55;1755225;80;21144;-71
2021/01/26 05:42:55;;;;;;;28.92;15.35;;;;;;;0.89;83.93;98156.69;1757006;81;21149;-71
2021/01/26 05:45:34;;;;;;;34.75;16.07;;;;;;;0.87;82.50;98172.05;1754645;79;21128;-71
2021/01/26 05:48:15;;;;;;;42.67;17.05;;;;;;;0.86;82.13;98165.67;1722466;81;22078;-70
2021/01/26 05:50:45;;;;;;;40.05;17.27;;;;;;;0.83;82.14;98173.34;1729466;81;21143;-70
2021/01/26 05:53:29;;;;;;;34.03;16.07;;;;;;;0.77;82.50;98180.59;1728936;82;21150;-70
2021/01/26 05:56:10;;;;;;;40.65;17.00;;;;;;;0.75;82.20;98177.17;1729651;81;22031;-70
2021/01/26 05:58:44;;;;;;;35.30;16.30;;;;;;;0.73;82.93;98183.56;1704589;82;21178;-71
2021/01/26 06:01:25;;;;;;;39.30;14.90;;;;;;;0.75;82.74;98178.02;1727053;82;21632;-71
2021/01/26 06:04:10;;;;;;;35.92;15.00;;;;;;;0.81;82.38;98185.28;1728929;82;21138;-70
2021/01/26 06:06:57;;;;;;;33.55;15.40;;;;;;;0.75;84.90;98184.42;1729446;81;21135;-70
2021/01/26 06:09:41;;;;;;;36.88;15.58;;;;;;;0.76;83.70;98188.70;1727507;82;21584;-71
2021/01/26 06:12:22;;;;;;;42.15;16.80;;;;;;;0.73;85.50;98198.91;1730293;82;21174;-71
2021/01/26 06:15:01;;;;;;;33.02;14.95;;;;;;;0.72;83.40;98190.83;1727857;82;21162;-71
2021/01/26 06:17:36;;;;;;;38.45;16.52;;;;;;;0.71;85.08;98203.61;1727560;82;21146;-71
2021/01/26 06:20:23;;;;;;;29.23;14.53;;;;;;;0.69;84.81;98208.72;1727824;82;21154;-71
2021/01/26 06:22:53;;;;;;;33.45;13.70;;;;;;;0.65;85.29;98208.30;1729971;82;21178;-71
2021/01/26 06:25:32;;;;;;;41.05;16.97;;;;;;;0.65;85.43;98198.50;1728267;82;21615;-71
2021/01/26 06:28:33;;;;;;;43.78;18.17;;;;;;;0.69;85.97;98201.05;1726857;82;21147;-73
2021/01/26 06:31:21;;;;;;;29.70;13.90;;;;;;;0.71;85.48;98201.91;1728076;82;21169;-71
2021/01/26 06:34:32;;;;;;;27.98;12.35;;;;;;;0.78;85.98;98219.41;1727757;81;21159;-70
2021/01/26 06:37:17;;;;;;;30.40;14.33;;;;;;;0.78;85.84;98221.97;1725741;81;21158;-70
2021/01/26 06:40:30;;;;;;;31.27;14.98;;;;;;;0.79;86.17;98210.86;1728157;82;21145;-71
2021/01/26 06:43:29;;;;;;;54.42;24.32;;;;;;;0.85;85.31;98210.86;1730127;82;21147;-71
2021/01/26 06:46:40;;;;;;;120.57;65.60;;;;;;;0.84;84.94;98229.64;1728360;82;21131;-71
2021/01/26 06:49:36;;;;;;;49.18;20.55;;;;;;;0.83;84.99;98228.35;1745824;80;21186;-71
2021/01/26 06:52:18;;;;;;;38.30;16.75;;;;;;;0.81;83.57;98236.02;1768435;80;21703;-72
2021/01/26 06:55:18;;;;;;;37.28;17.35;;;;;;;0.72;86.43;98235.60;1774792;78;21142;-71
2021/01/26 06:58:13;;;;;;;36.73;15.75;;;;;;;0.78;84.83;98242.00;1776769;78;21176;-71
2021/01/26 07:00:51;;;;;;;34.03;15.05;;;;;;;0.81;85.76;98250.09;1775114;78;21569;-71
2021/01/26 07:03:33;;;;;;;29.75;13.80;;;;;;;0.86;83.95;98252.24;1774432;80;21645;-70
2021/01/26 07:06:09;;;;;;;33.80;13.68;;;;;;;0.87;85.43;98253.09;1773990;78;21168;-72
2021/01/26 07:08:54;;;;;;;30.75;14.43;;;;;;;0.91;85.00;98258.20;1775396;80;21173;-71
2021/01/26 07:12:01;;;;;;;36.93;14.63;;;;;;;0.96;84.81;98265.89;1773586;80;21164;-71
2021/01/26 07:15:14;;;;;;;125.80;39.67;;;;;;;1.03;84.45;98271.86;1775704;78;21160;-72
2021/01/26 07:18:02;;;;;;;79.92;28.50;;;;;;;1.08;84.83;98267.60;1772448;80;21161;-70
2021/01/26 07:20:58;;;;;;;60.78;26.48;;;;;;;1.14;84.84;98266.31;1771837;80;21145;-70
2021/01/26 07:23:52;;;;;;;65.95;24.32;;;;;;;1.18;84.13;98282.09;1773008;80;21142;-71
2021/01/26 07:26:55;;;;;;;33.90;16.10;;;;;;;1.19;84.36;98289.78;1773064;80;21161;-72
2021/01/26 07:29:35;;;;;;;36.53;14.70;;;;;;;1.22;84.08;98295.33;1772558;80;21193;-71
2021/01/26 07:32:33;;;;;;;59.23;23.70;;;;;;;1.29;85.57;98294.88;1770746;80;21589;-69
2021/01/26 07:35:35;;;;;;;40.55;18.60;;;;;;;1.41;86.12;98301.70;1771213;80;21134;-70
2021/01/26 07:38:23;;;;;;;46.40;18.12;;;;;;;1.47;84.60;98305.09;1770541;80;21149;-73
2021/01/26 07:40:56;;;;;;;54.60;24.00;;;;;;;1.54;84.31;98309.37;1772362;78;21098;-72
2021/01/26 07:44:00;;;;;;;46.23;20.17;;;;;;;1.55;84.01;98308.94;1772089;78;21585;-72
2021/01/26 07:46:39;;;;;;;36.77;16.25;;;;;;;1.52;83.30;98316.20;1772096;80;21146;-70
2021/01/26 07:49:44;;;;;;;36.90;17.23;;;;;;;1.47;83.81;98314.50;1771735;80;21145;-71
2021/01/26 07:52:13;;;;;;;;;;;;;;;1.49;84.09;98320.47;1773459;80;21582;-71
2021/01/26 07:55:14;;;;;;;39.58;16.73;;;;;;;1.50;83.86;98324.32;1773078;80;20198;-71
2021/01/26 07:57:52;;;;;;;39.18;16.80;;;;;;;1.51;83.86;98313.64;1775567;80;21149;-72
2021/01/26 08:00:23;;;;;;;44.18;19.35;;;;;;;1.48;83.96;98298.29;1773957;80;21168;-72
2021/01/26 08:02:55;;;;;;;46.50;21.62;;;;;;;1.54;83.64;98296.56;1748225;80;21570;-71
2021/01/26 08:05:44;;;;;;;31.68;15.95;;;;;;;1.59;83.86;98301.67;1773621;80;21145;-71
2021/01/26 08:08:19;;;;;;;31.52;14.78;;;;;;;1.63;83.45;98302.08;1774644;80;21631;-71
2021/01/26 08:11:24;;;;;;;27.40;13.58;;;;;;;1.70;83.62;98320.88;1774515;78;21715;-71
2021/01/26 08:14:07;;;;;;;30.08;13.43;;;;;;;1.75;83.29;98334.11;1773131;78;21129;-70
2021/01/26 08:16:38;;;;;;;42.23;18.67;;;;;;;1.82;83.05;98322.56;1773922;80;21140;-71
2021/01/26 08:19:35;;;;;;;37.03;17.37;;;;;;;1.86;82.68;98328.95;1773846;80;21129;-71
2021/01/26 08:22:31;;;;;;;47.35;19.30;;;;;;;1.91;82.73;98323.80;1774402;78;21132;-70
2021/01/26 08:25:21;;;;;;;63.58;22.73;;;;;;;1.98;82.13;98339.61;1772126;78;21157;-71
2021/01/26 08:27:53;;;;;;;76.67;25.27;;;;;;;2.01;81.95;98340.89;1772921;80;21196;-71
2021/01/26 08:33:32;;;;;;;66.00;24.43;;;;;;;1.97;81.73;98355.42;1802018;78;23569;-71
2021/01/26 08:36:28;;;;;;;52.90;21.55;;;;;;;1.98;81.80;98361.39;1783815;80;21108;-71
2021/01/26 08:39:10;;;;;;;41.40;20.82;;;;;;;2.10;81.88;98368.20;1874339;74;22930;-71
2021/01/26 08:41:48;;;;;;;36.55;17.87;;;;;;;2.10;81.84;98375.46;1834076;75;21181;-72
2021/01/26 08:44:28;;;;;;;31.77;15.75;;;;;;;2.14;81.59;98375.88;1843766;75;21142;-72
2021/01/26 08:46:57;;;;;;;55.67;24.72;;;;;;;2.17;81.47;98368.63;1840615;75;21170;-71
2021/01/26 08:49:35;;;;;;;51.83;21.87;;;;;;;2.12;81.60;98344.69;1842262;75;21154;-71
2021/01/26 08:52:23;;;;;;;39.63;18.52;;;;;;;2.14;81.62;98341.70;1842305;75;21141;-72
2021/01/26 08:54:55;;;;;;;34.18;15.98;;;;;;;2.13;81.52;98345.98;1838503;75;21126;-71
2021/01/26 08:57:35;;;;;;;28.80;13.93;;;;;;;2.08;81.28;98365.64;1844922;75;21134;-72
2021/01/26 09:00:29;;;;;;;25.70;13.38;;;;;;;1.97;81.62;98363.55;1842373;75;21091;-71
2021/01/26 09:02:57;;;;;;;32.35;15.15;;;;;;;1.99;81.31;98364.40;1753510;80;21850;-71
2021/01/26 09:05:42;;;;;;;35.92;16.35;;;;;;;1.99;81.62;98377.22;1807161;78;21127;-71
2021/01/26 09:08:10;;;;;;;30.43;12.95;;;;;;;2.04;81.72;98392.14;1801880;77;21120;-71
2021/01/26 09:10:43;;;;;;;29.95;14.00;;;;;;;2.02;81.39;98397.70;1806421;78;21119;-71
2021/01/26 09:13:30;;;;;;;30.97;14.43;;;;;;;2.07;81.37;98397.69;1807326;77;21140;-71
2021/01/26 09:16:06;;;;;;;33.73;16.62;;;;;;;2.14;81.51;98399.39;1783558;78;21113;-71
2021/01/26 09:18:36;;;;;;;37.05;16.60;;;;;;;2.20;81.62;98404.50;1805672;78;21131;-72
2021/01/26 09:21:08;;;;;;;33.85;16.97;;;;;;;2.26;81.53;98407.48;1807172;77;21108;-72
2021/01/26 09:23:39;;;;;;;50.12;25.43;;;;;;;2.27;81.51;98411.73;1779868;77;21178;-71
2021/01/26 09:26:17;;;;;;;90.75;40.03;;;;;;;2.29;81.53;98410.02;1785514;78;21656;-72
2021/01/26 09:28:49;;;;;;;87.53;37.48;;;;;;;2.35;82.18;98411.31;1807116;77;21173;-72
2021/01/26 09:31:27;;;;;;;83.17;35.17;;;;;;;2.44;82.15;98394.59;1803389;77;21143;-71
2021/01/26 09:34:05;;;;;;;84.37;34.75;;;;;;;2.45;80.94;98397.59;1774486;78;21589;-71
2021/01/26 09:36:34;;;;;;;53.23;26.23;;;;;;;2.37;81.00;98393.77;1805230;77;21167;-71
2021/01/26 09:39:08;;;;;;;53.83;23.32;;;;;;;2.28;80.83;98391.22;1810065;77;21157;-72
2021/01/26 09:41:38;;;;;;;45.80;21.45;;;;;;;2.29;81.16;98395.52;1805120;77;21181;-71
2021/01/26 09:44:14;;;;;;;38.15;19.42;;;;;;;2.31;81.46;98396.80;1807044;77;21143;-71
2021/01/26 09:46:49;;;;;;;36.20;17.98;;;;;;;2.32;81.28;98397.20;1780321;78;21136;-71
2021/01/26 09:49:26;;;;;;;35.05;15.90;;;;;;;2.37;81.14;98405.75;1804885;78;21540;-73
2021/01/26 09:52:00;;;;;;;38.70;14.10;;;;;;;2.40;81.04;98407.00;1789476;78;21930;-71
2021/01/26 09:54:34;;;;;;;34.50;17.27;;;;;;;2.45;80.82;98398.00;1805508;78;21564;-71
2021/01/26 09:57:05;;;;;;;34.73;16.35;;;;;;;2.46;80.50;98400.56;1804180;77;22169;-71
2021/01/26 09:59:36;;;;;;;37.58;16.80;;;;;;;2.51;80.74;98403.14;1805306;77;21141;-73
2021/01/26 10:02:14;;;;;;;45.05;19.70;;;;;;;2.55;80.68;98406.11;1804215;77;21137;-71
2021/01/26 10:04:44;;;;;;;82.33;32.45;;;;;;;2.59;80.67;98407.81;1807057;77;21102;-72
2021/01/26 10:07:18;;;;;;;88.65;39.53;;;;;;;2.69;80.62;98419.73;1805467;77;21984;-71
2021/01/26 10:09:47;;;;;;;40.92;21.33;;;;;;;2.75;80.52;98424.00;1805796;77;21563;-71
2021/01/26 10:12:34;;;;;;;49.23;23.22;;;;;;;2.82;80.59;98402.98;1807278;78;21143;-72
2021/01/26 10:15:30;;;;;;;46.08;19.80;;;;;;;2.88;80.59;98399.10;1806683;77;21126;-73
2021/01/26 10:18:17;;;;;;;38.48;18.50;;;;;;;2.89;79.86;98398.26;1805975;78;21144;-71
2021/01/26 10:20:53;;;;;;;34.13;18.37;;;;;;;2.93;79.62;98405.92;1775710;79;21965;-71
2021/01/26 10:23:41;;;;;;;33.33;15.48;;;;;;;2.97;79.69;98408.89;1806445;78;21181;-70
2021/01/26 10:26:26;;;;;;;31.00;18.32;;;;;;;3.06;79.34;98405.84;1807305;78;21700;-71
2021/01/26 10:29:15;;;;;;;34.90;19.47;;;;;;;3.08;78.89;98402.40;1805543;78;21132;-73
2021/01/26 10:31:58;;;;;;;34.95;16.57;;;;;;;3.11;78.52;98411.38;1807203;78;21124;-72
2021/01/26 10:34:37;;;;;;;41.73;15.83;;;;;;;3.16;78.91;98399.38;1807396;78;21147;-71
2021/01/26 10:37:12;;;;;;;41.45;17.15;;;;;;;3.18;78.63;98413.47;1808336;78;21164;-71
2021/01/26 10:39:43;;;;;;;44.13;17.27;;;;;;;3.21;78.14;98418.61;1807563;78;21936;-71
2021/01/26 10:42:23;;;;;;;43.70;17.92;;;;;;;3.26;78.59;98415.55;1808985;78;21124;-71
2021/01/26 10:44:55;;;;;;;39.92;15.43;;;;;;;3.16;78.13;98425.06;1801944;79;21258;-72
2021/01/26 10:47:32;;;;;;;30.62;13.68;;;;;;;3.15;78.37;98422.50;1803256;79;21124;-71
2021/01/26 10:50:10;;;;;;;31.97;16.07;;;;;;;3.17;78.49;98424.19;1803084;79;21156;-71
2021/01/26 10:52:48;;;;;;;34.65;14.80;;;;;;;3.18;78.49;98423.75;1803482;79;21223;-71
2021/01/26 10:55:20;;;;;;;45.95;16.62;;;;;;;3.27;78.62;98424.98;1800391;79;21097;-71
2021/01/26 10:57:51;;;;;;;39.35;16.20;;;;;;;3.22;77.63;98420.30;1802758;79;21146;-73
2021/01/26 11:00:23;;;;;;;25.62;13.03;;;;;;;3.30;78.08;98432.69;1801967;79;21180;-73
2021/01/26 11:02:51;;;;;;;26.50;11.78;;;;;;;3.19;76.46;98425.47;1808139;78;21144;-71
2021/01/26 11:05:20;;;;;;;27.40;13.60;;;;;;;3.26;76.66;98416.84;1808246;78;21143;-72
2021/01/26 11:07:48;;;;;;;38.88;17.35;;;;;;;3.32;77.22;98415.55;1806219;78;21136;-72
2021/01/26 11:10:17;;;;;;;32.88;16.27;;;;;;;3.37;77.79;98413.77;1804757;77;21156;-72
2021/01/26 11:12:45;;;;;;;27.80;12.10;;;;;;;3.48;77.95;98405.12;1804529;78;21139;-71
2021/01/26 11:15:17;;;;;;;34.73;13.83;;;;;;;3.47;77.13;98401.72;1805222;78;21129;-72
2021/01/26 11:17:46;;;;;;;26.77;12.78;;;;;;;3.57;77.52;98405.91;1808005;78;21143;-73
2021/01/26 11:20:14;;;;;;;29.23;13.10;;;;;;;3.65;77.70;98399.43;1807886;78;21104;-71
2021/01/26 11:22:42;;;;;;;30.60;13.65;;;;;;;3.72;76.33;98393.38;1807447;78;21136;-72
2021/01/26 11:25:10;;;;;;;28.95;13.65;;;;;;;3.83;76.43;98397.12;1807317;78;21123;-71
2021/01/26 11:27:38;;;;;;;27.02;12.13;;;;;;;3.93;76.18;98396.17;1808203;78;21576;-71
2021/01/26 11:30:10;;;;;;;25.35;13.72;;;;;;;4.06;74.94;98389.20;1807029;78;21151;-72
2021/01/26 11:32:38;;;;;;;27.90;14.87;;;;;;;4.23;75.15;98390.73;1806876;78;21147;-72
2021/01/26 11:35:10;;;;;;;28.52;13.85;;;;;;;4.38;75.14;98378.99;1808031;78;22148;-71
2021/01/26 11:37:38;;;;;;;29.23;16.93;;;;;;;4.49;73.25;98380.14;1808563;78;21568;-73
2021/01/26 11:40:07;;;;;;;25.62;13.53;;;;;;;4.65;72.81;98386.80;1806863;78;21116;-71
2021/01/26 11:42:36;;;;;;;31.15;15.05;;;;;;;4.71;72.55;98381.56;1807078;77;21580;-72
2021/01/26 11:45:07;;;;;;;29.80;16.60;;;;;;;4.69;74.20;98378.16;1805381;78;21144;-71
2021/01/26 11:47:36;;;;;;;24.47;12.55;;;;;;;4.63;72.19;98374.83;1804253;77;21128;-71
2021/01/26 11:50:09;;;;;;;34.75;18.45;;;;;;;4.57;70.74;98374.02;1807348;77;21151;-72
2021/01/26 11:52:38;;;;;;;26.12;14.03;;;;;;;4.55;72.19;98365.91;1804578;77;21109;-72
2021/01/26 11:55:10;;;;;;;29.50;14.35;;;;;;;4.50;71.73;98371.13;1806836;77;21553;-72
2021/01/26 11:57:40;;;;;;;24.65;12.47;;;;;;;4.51;71.14;98375.83;1805290;77;21109;-73
2021/01/26 12:00:10;;;;;;;29.45;14.53;;;;;;;4.40;69.62;98373.39;1806390;77;21132;-72
2021/01/26 12:02:39;;;;;;;26.35;14.28;;;;;;;4.33;71.25;98372.59;1805521;77;21122;-71
2021/01/26 12:05:09;;;;;;;26.50;13.85;;;;;;;4.41;72.29;98355.78;1806625;78;21695;-71
2021/01/26 12:07:38;;;;;;;29.60;14.35;;;;;;;4.29;71.75;98354.64;1805007;77;21144;-73
2021/01/26 12:10:08;;;;;;;32.05;13.83;;;;;;;4.34;71.40;98353.72;1807205;77;21132;-73
2021/01/26 12:12:36;;;;;;;29.57;14.98;;;;;;;4.33;71.49;98362.74;1807890;77;21137;-71
2021/01/26 12:15:08;;;;;;;31.65;15.10;;;;;;;4.33;72.55;98353.30;1804617;77;21124;-73
2021/01/26 12:17:36;;;;;;;36.10;15.03;;;;;;;4.33;72.92;98356.31;1806932;77;21543;-72
2021/01/26 12:20:05;;;;;;;28.98;14.40;;;;;;;4.42;73.44;98348.91;1806721;77;21607;-71
2021/01/26 12:22:33;;;;;;;23.90;11.88;;;;;;;4.44;70.80;98360.06;1805381;77;21132;-71
2021/01/26 12:25:01;;;;;;;26.85;12.40;;;;;;;4.44;71.33;98366.50;1777951;78;21121;-73